sensor_id;sensor_type;location;lat;lon;timestamp;pressure;altitude;pressure_sealevel;temperature;humidity
56912;BME280;42800;53.928;27.662;2023-04-25T00:02:03;97891.28;;;9.97;100.00
56912;BME280;42800;53.928;27.662;2023-04-25T00:04:31;97885.78;;;9.82;100.00
56912;BME280;42800;53.928;27.662;2023-04-25T00:06:59;97877.59;;;9.97;100.00
56912;BME280;42800;53.928;27.662;2023-04-25T00:09:27;97876.78;;;9.96;100.00
56912;BME280;42800;53.928;27.662;2023-04-25T00:11:53;97876.41;;;9.90;100.00
56912;BME280;42800;53.928;27.662;2023-04-25T00:14:19;97866.63;;;9.97;100.00
56912;BME280;42800;53.928;27.662;2023-04-25T00:16:44;97866.25;;;9.84;100.00
56912;BME280;42800;53.928;27.662;2023-04-25T00:19:10;97862.31;;;9.96;100.00
56912;BME280;42800;53.928;27.662;2023-04-25T00:21:37;97865.44;;;10.01;100.00
56912;BME280;42800;53.928;27.662;2023-04-25T00:24:06;97861.53;;;9.99;100.00
56912;BME280;42800;53.928;27.662;2023-04-25T00:26:34;97859.19;;;9.94;100.00
56912;BME280;42800;53.928;27.662;2023-04-25T00:29:00;97845.88;;;9.92;100.00
56912;BME280;42800;53.928;27.662;2023-04-25T00:31:26;97853.31;;;9.88;100.00
56912;BME280;42800;53.928;27.662;2023-04-25T00:33:52;97849.41;;;9.85;100.00
56912;BME280;42800;53.928;27.662;2023-04-25T00:36:18;97841.19;;;9.89;100.00
56912;BME280;42800;53.928;27.662;2023-04-25T00:38:45;97832.63;;;9.80;100.00
56912;BME280;42800;53.928;27.662;2023-04-25T00:41:11;97829.06;;;9.79;100.00
56912;BME280;42800;53.928;27.662;2023-04-25T00:43:37;97825.56;;;9.72;100.00
56912;BME280;42800;53.928;27.662;2023-04-25T00:46:05;97813.44;;;9.58;100.00
56912;BME280;42800;53.928;27.662;2023-04-25T00:48:31;97805.66;;;9.50;100.00
56912;BME280;42800;53.928;27.662;2023-04-25T00:50:58;97804.84;;;9.53;100.00
56912;BME280;42800;53.928;27.662;2023-04-25T00:53:25;97819.31;;;9.68;100.00
56912;BME280;42800;53.928;27.662;2023-04-25T00:55:53;97810.34;;;9.63;100.00
56912;BME280;42800;53.928;27.662;2023-04-25T00:58:19;97813.06;;;9.60;100.00
56912;BME280;42800;53.928;27.662;2023-04-25T01:00:46;97805.25;;;9.55;100.00
56912;BME280;42800;53.928;27.662;2023-04-25T01:03:12;97797.81;;;9.59;100.00
56912;BME280;42800;53.928;27.662;2023-04-25T01:05:39;97804.88;;;9.60;100.00
56912;BME280;42800;53.928;27.662;2023-04-25T01:08:06;97788.44;;;9.53;100.00
56912;BME280;42800;53.928;27.662;2023-04-25T01:10:32;97789.63;;;9.45;100.00
56912;BME280;42800;53.928;27.662;2023-04-25T01:12:59;97790.41;;;9.45;100.00
56912;BME280;42800;53.928;27.662;2023-04-25T01:15:25;97783.38;;;9.51;100.00
56912;BME280;42800;53.928;27.662;2023-04-25T01:17:51;97778.66;;;9.52;100.00
56912;BME280;42800;53.928;27.662;2023-04-25T01:20:19;97770.06;;;9.25;100.00
56912;BME280;42800;53.928;27.662;2023-04-25T01:22:47;97774.75;;;9.42;100.00
56912;BME280;42800;53.928;27.662;2023-04-25T01:25:13;97768.91;;;9.36;100.00
56912;BME280;42800;53.928;27.662;2023-04-25T01:27:40;97756.41;;;9.35;100.00
56912;BME280;42800;53.928;27.662;2023-04-25T01:30:07;97758.75;;;9.30;100.00
56912;BME280;42800;53.928;27.662;2023-04-25T01:32:33;97764.19;;;9.26;100.00
56912;BME280;42800;53.928;27.662;2023-04-25T01:35:04;97734.13;;;8.90;100.00
56912;BME280;42800;53.928;27.662;2023-04-25T01:37:34;97723.19;;;9.23;100.00
56912;BME280;42800;53.928;27.662;2023-04-25T01:40:01;97707.56;;;9.09;100.00
56912;BME280;42800;53.928;27.662;2023-04-25T01:42:27;97707.19;;;9.10;100.00
56912;BME280;42800;53.928;27.662;2023-04-25T01:44:53;97712.25;;;9.23;100.00
56912;BME280;42800;53.928;27.662;2023-04-25T01:47:19;97702.09;;;9.12;100.00
56912;BME280;42800;53.928;27.662;2023-04-25T01:49:45;97705.22;;;9.07;100.00
56912;BME280;42800;53.928;27.662;2023-04-25T01:52:11;97697.41;;;9.13;100.00
56912;BME280;42800;53.928;27.662;2023-04-25T01:54:36;97700.94;;;9.10;100.00
56912;BME280;42800;53.928;27.662;2023-04-25T01:57:03;97690.38;;;9.12;100.00
56912;BME280;42800;53.928;27.662;2023-04-25T01:59:29;97682.59;;;9.07;100.00
56912;BME280;42800;53.928;27.662;2023-04-25T02:01:55;97684.91;;;9.12;100.00
56912;BME280;42800;53.928;27.662;2023-04-25T02:04:21;97650.94;;;8.77;100.00
56912;BME280;42800;53.928;27.662;2023-04-25T02:06:47;97657.59;;;8.90;100.00
56912;BME280;42800;53.928;27.662;2023-04-25T02:09:13;97652.88;;;9.09;100.00
56912;BME280;42800;53.928;27.662;2023-04-25T02:11:38;97668.53;;;9.01;100.00
56912;BME280;42800;53.928;27.662;2023-04-25T02:14:05;97652.13;;;8.83;100.00
56912;BME280;42800;53.928;27.662;2023-04-25T02:16:31;97640.78;;;8.88;100.00
56912;BME280;42800;53.928;27.662;2023-04-25T02:18:57;97649.78;;;8.85;100.00
56912;BME280;42800;53.928;27.662;2023-04-25T02:21:23;97637.28;;;8.91;100.00
56912;BME280;42800;53.928;27.662;2023-04-25T02:23:49;97637.28;;;8.88;100.00
56912;BME280;42800;53.928;27.662;2023-04-25T02:26:17;97640.78;;;8.85;100.00
56912;BME280;42800;53.928;27.662;2023-04-25T02:28:43;97633.38;;;8.92;100.00
56912;BME280;42800;53.928;27.662;2023-04-25T02:31:09;97640.78;;;8.81;100.00
56912;BME280;42800;53.928;27.662;2023-04-25T02:33:35;97613.06;;;8.76;100.00
56912;BME280;42800;53.928;27.662;2023-04-25T02:36:01;97614.66;;;8.73;100.00
56912;BME280;42800;53.928;27.662;2023-04-25T02:38:27;97604.88;;;8.72;100.00
56912;BME280;42800;53.928;27.662;2023-04-25T02:40:53;97609.97;;;8.81;100.00
56912;BME280;42800;53.928;27.662;2023-04-25T02:43:19;97601.34;;;8.79;100.00
56912;BME280;42800;53.928;27.662;2023-04-25T02:45:46;97590.44;;;8.68;100.00
56912;BME280;42800;53.928;27.662;2023-04-25T02:48:12;97566.22;;;8.56;100.00
56912;BME280;42800;53.928;27.662;2023-04-25T02:50:38;97564.28;;;8.81;100.00
56912;BME280;42800;53.928;27.662;2023-04-25T02:53:04;97593.56;;;8.84;100.00
56912;BME280;42800;53.928;27.662;2023-04-25T02:55:30;97594.34;;;8.70;100.00
56912;BME280;42800;53.928;27.662;2023-04-25T02:57:56;97595.13;;;8.82;100.00
56912;BME280;42800;53.928;27.662;2023-04-25T03:00:22;97561.19;;;8.51;100.00
56912;BME280;42800;53.928;27.662;2023-04-25T03:02:48;97566.25;;;8.74;100.00
56912;BME280;42800;53.928;27.662;2023-04-25T03:05:14;97558.03;;;8.63;100.00
56912;BME280;42800;53.928;27.662;2023-04-25T03:07:41;97579.13;;;8.84;100.00
56912;BME280;42800;53.928;27.662;2023-04-25T03:10:09;97585.34;;;8.88;100.00
56912;BME280;42800;53.928;27.662;2023-04-25T03:12:35;97579.13;;;8.48;100.00
56912;BME280;42800;53.928;27.662;2023-04-25T03:15:02;97560.00;;;8.77;100.00
56912;BME280;42800;53.928;27.662;2023-04-25T03:17:28;97569.34;;;8.72;100.00
56912;BME280;42800;53.928;27.662;2023-04-25T03:19:55;97551.38;;;8.85;100.00
56912;BME280;42800;53.928;27.662;2023-04-25T03:22:21;97554.53;;;8.80;100.00
56912;BME280;42800;53.928;27.662;2023-04-25T03:24:47;97564.66;;;9.01;100.00
56912;BME280;42800;53.928;27.662;2023-04-25T03:27:13;97614.88;;;9.64;100.00
56912;BME280;42800;53.928;27.662;2023-04-25T03:29:39;97671.50;;;9.85;100.00
56912;BME280;42800;53.928;27.662;2023-04-25T03:32:06;97713.44;;;10.63;100.00
56912;BME280;42800;53.928;27.662;2023-04-25T03:34:32;97728.38;;;10.51;100.00
56912;BME280;42800;53.928;27.662;2023-04-25T03:36:58;97758.94;;;11.16;100.00
56912;BME280;42800;53.928;27.662;2023-04-25T03:39:24;97815.41;;;11.62;100.00
56912;BME280;42800;53.928;27.662;2023-04-25T03:41:50;97839.16;;;11.90;100.00
56912;BME280;42800;53.928;27.662;2023-04-25T03:44:16;97842.13;;;11.58;100.00
56912;BME280;42800;53.928;27.662;2023-04-25T03:46:42;97844.63;;;12.32;100.00
56912;BME280;42800;53.928;27.662;2023-04-25T03:49:08;97874.44;;;11.92;100.00
56912;BME280;42800;53.928;27.662;2023-04-25T03:51:34;97854.28;;;12.47;100.00
56912;BME280;42800;53.928;27.662;2023-04-25T03:54:00;97890.34;;;12.90;100.00
56912;BME280;42800;53.928;27.662;2023-04-25T03:56:27;97917.63;;;13.70;100.00
56912;BME280;42800;53.928;27.662;2023-04-25T03:58:52;97924.53;;;13.24;100.00
56912;BME280;42800;53.928;27.662;2023-04-25T04:01:18;97927.44;;;13.71;100.00
56912;BME280;42800;53.928;27.662;2023-04-25T04:03:45;97926.97;;;13.76;100.00
56912;BME280;42800;53.928;27.662;2023-04-25T04:06:10;97942.72;;;13.75;100.00
56912;BME280;42800;53.928;27.662;2023-04-25T04:08:36;97937.03;;;13.59;100.00
56912;BME280;42800;53.928;27.662;2023-04-25T04:11:02;97952.16;;;14.52;100.00
56912;BME280;42800;53.928;27.662;2023-04-25T04:13:29;97952.97;;;14.49;100.00
56912;BME280;42800;53.928;27.662;2023-04-25T04:15:55;97960.59;;;14.41;99.69
56912;BME280;42800;53.928;27.662;2023-04-25T04:18:21;97946.25;;;14.53;98.92
56912;BME280;42800;53.928;27.662;2023-04-25T04:20:47;97953.34;;;14.74;98.58
56912;BME280;42800;53.928;27.662;2023-04-25T04:23:13;97963.50;;;15.01;93.76
56912;BME280;42800;53.928;27.662;2023-04-25T04:25:39;97956.81;;;14.98;92.73
56912;BME280;42800;53.928;27.662;2023-04-25T04:28:06;97958.38;;;15.19;93.01
56912;BME280;42800;53.928;27.662;2023-04-25T04:30:33;97959.38;;;15.29;92.34
56912;BME280;42800;53.928;27.662;2023-04-25T04:33:01;97955.16;;;15.81;91.64
56912;BME280;42800;53.928;27.662;2023-04-25T04:35:27;97963.72;;;16.19;88.85
56912;BME280;42800;53.928;27.662;2023-04-25T04:37:53;97961.41;;;16.34;85.43
56912;BME280;42800;53.928;27.662;2023-04-25T04:40:20;97957.44;;;16.35;85.40
56912;BME280;42800;53.928;27.662;2023-04-25T04:42:47;97964.25;;;16.14;85.67
56912;BME280;42800;53.928;27.662;2023-04-25T04:45:14;97962.84;;;15.53;89.77
56912;BME280;42800;53.928;27.662;2023-04-25T04:47:40;97963.94;;;15.75;89.70
56912;BME280;42800;53.928;27.662;2023-04-25T04:50:07;97964.38;;;15.74;86.91
56912;BME280;42800;53.928;27.662;2023-04-25T04:52:34;97956.19;;;16.68;87.17
56912;BME280;42800;53.928;27.662;2023-04-25T04:55:00;97961.50;;;16.63;83.77
56912;BME280;42800;53.928;27.662;2023-04-25T04:57:27;97962.22;;;18.18;76.83
56912;BME280;42800;53.928;27.662;2023-04-25T04:59:53;97964.66;;;17.78;75.61
56912;BME280;42800;53.928;27.662;2023-04-25T05:02:19;97971.16;;;17.71;75.93
56912;BME280;42800;53.928;27.662;2023-04-25T05:04:46;97986.28;;;18.08;75.44
56912;BME280;42800;53.928;27.662;2023-04-25T05:07:12;97989.81;;;18.09;75.32
56912;BME280;42800;53.928;27.662;2023-04-25T05:09:38;97985.91;;;16.97;78.28
56912;BME280;42800;53.928;27.662;2023-04-25T05:12:04;97981.06;;;17.98;75.83
56912;BME280;42800;53.928;27.662;2023-04-25T05:14:30;97983.22;;;18.67;71.78
56912;BME280;42800;53.928;27.662;2023-04-25T05:16:56;97992.66;;;17.67;76.73
56912;BME280;42800;53.928;27.662;2023-04-25T05:19:22;97993.09;;;17.53;77.86
56912;BME280;42800;53.928;27.662;2023-04-25T05:21:49;97981.81;;;18.49;76.87
56912;BME280;42800;53.928;27.662;2023-04-25T05:24:15;97994.25;;;18.45;74.13
56912;BME280;42800;53.928;27.662;2023-04-25T05:26:41;97993.22;;;18.64;73.69
56912;BME280;42800;53.928;27.662;2023-04-25T05:29:07;97996.84;;;17.46;76.87
56912;BME280;42800;53.928;27.662;2023-04-25T05:31:35;97990.50;;;16.71;80.53
56912;BME280;42800;53.928;27.662;2023-04-25T05:34:01;97969.84;;;14.98;97.58
56912;BME280;42800;53.928;27.662;2023-04-25T05:36:27;97947.69;;;15.01;100.00
56912;BME280;42800;53.928;27.662;2023-04-25T05:38:54;97925.31;;;13.82;100.00
56912;BME280;42800;53.928;27.662;2023-04-25T05:41:20;97893.19;;;13.72;100.00
56912;BME280;42800;53.928;27.662;2023-04-25T05:43:46;97852.16;;;13.27;100.00
56912;BME280;42800;53.928;27.662;2023-04-25T05:46:14;97871.13;;;13.17;100.00
56912;BME280;42800;53.928;27.662;2023-04-25T05:48:43;97846.91;;;13.36;100.00
56912;BME280;42800;53.928;27.662;2023-04-25T05:51:09;97815.38;;;12.48;100.00
56912;BME280;42800;53.928;27.662;2023-04-25T05:53:35;97790.50;;;12.63;100.00
56912;BME280;42800;53.928;27.662;2023-04-25T05:56:01;97797.84;;;13.31;100.00
56912;BME280;42800;53.928;27.662;2023-04-25T05:58:28;97771.78;;;13.08;100.00
56912;BME280;42800;53.928;27.662;2023-04-25T06:00:54;97750.03;;;12.63;100.00
56912;BME280;42800;53.928;27.662;2023-04-25T06:03:20;97709.09;;;12.69;100.00
56912;BME280;42800;53.928;27.662;2023-04-25T06:05:46;97681.34;;;12.60;100.00
56912;BME280;42800;53.928;27.662;2023-04-25T06:08:12;97648.81;;;12.55;100.00
56912;BME280;42800;53.928;27.662;2023-04-25T06:10:38;97584.59;;;11.84;100.00
56912;BME280;42800;53.928;27.662;2023-04-25T06:13:05;97491.78;;;11.71;100.00
56912;BME280;42800;53.928;27.662;2023-04-25T06:15:31;97428.75;;;11.37;100.00
56912;BME280;42800;53.928;27.662;2023-04-25T06:17:57;97392.66;;;11.39;100.00
56912;BME280;42800;53.928;27.662;2023-04-25T06:20:24;97290.06;;;11.56;100.00
56912;BME280;42800;53.928;27.662;2023-04-25T06:22:49;97265.81;;;10.77;100.00
56912;BME280;42800;53.928;27.662;2023-04-25T06:25:17;97269.59;;;10.87;100.00
56912;BME280;42800;53.928;27.662;2023-04-25T06:27:43;97270.72;;;11.43;100.00
56912;BME280;42800;53.928;27.662;2023-04-25T06:30:10;97312.63;;;10.90;100.00
56912;BME280;42800;53.928;27.662;2023-04-25T06:32:37;97330.22;;;11.19;100.00
56912;BME280;42800;53.928;27.662;2023-04-25T06:35:03;97338.00;;;11.24;100.00
56912;BME280;42800;53.928;27.662;2023-04-25T06:37:29;97392.81;;;11.82;100.00
56912;BME280;42800;53.928;27.662;2023-04-25T06:39:55;97390.16;;;12.25;100.00
56912;BME280;42800;53.928;27.662;2023-04-25T06:42:21;97383.38;;;11.87;100.00
56912;BME280;42800;53.928;27.662;2023-04-25T06:44:47;97397.13;;;11.83;100.00
56912;BME280;42800;53.928;27.662;2023-04-25T06:47:14;97381.34;;;11.37;100.00
56912;BME280;42800;53.928;27.662;2023-04-25T06:49:40;97409.69;;;11.26;100.00
56912;BME280;42800;53.928;27.662;2023-04-25T06:52:05;97405.97;;;11.67;100.00
56912;BME280;42800;53.928;27.662;2023-04-25T06:54:31;97375.06;;;11.90;100.00
56912;BME280;42800;53.928;27.662;2023-04-25T06:56:57;97391.00;;;11.45;100.00
56912;BME280;42800;53.928;27.662;2023-04-25T06:59:23;97380.00;;;11.99;100.00
56912;BME280;42800;53.928;27.662;2023-04-25T07:01:49;97357.69;;;11.46;100.00
56912;BME280;42800;53.928;27.662;2023-04-25T07:04:16;97431.03;;;11.69;100.00
56912;BME280;42800;53.928;27.662;2023-04-25T07:06:42;97445.50;;;11.73;100.00
56912;BME280;42800;53.928;27.662;2023-04-25T07:09:08;97525.59;;;11.65;100.00
56912;BME280;42800;53.928;27.662;2023-04-25T07:11:35;97495.50;;;11.58;100.00
56912;BME280;42800;53.928;27.662;2023-04-25T07:14:01;97502.44;;;11.35;100.00
56912;BME280;42800;53.928;27.662;2023-04-25T07:16:27;97506.16;;;11.52;100.00
56912;BME280;42800;53.928;27.662;2023-04-25T07:18:54;97503.66;;;11.34;100.00
56912;BME280;42800;53.928;27.662;2023-04-25T07:21:20;97541.28;;;11.34;100.00
56912;BME280;42800;53.928;27.662;2023-04-25T07:23:46;97632.44;;;11.07;100.00
56912;BME280;42800;53.928;27.662;2023-04-25T07:26:12;97752.34;;;11.06;100.00
56912;BME280;42800;53.928;27.662;2023-04-25T07:28:38;97852.53;;;11.25;100.00
56912;BME280;42800;53.928;27.662;2023-04-25T07:31:04;97893.38;;;11.05;100.00
56912;BME280;42800;53.928;27.662;2023-04-25T07:33:30;97953.72;;;10.98;100.00
56912;BME280;42800;53.928;27.662;2023-04-25T07:35:56;97946.25;;;11.13;100.00
56912;BME280;42800;53.928;27.662;2023-04-25T07:38:23;97896.97;;;10.92;100.00
56912;BME280;42800;53.928;27.662;2023-04-25T07:40:49;98012.94;;;10.71;100.00
56912;BME280;42800;53.928;27.662;2023-04-25T07:43:15;98128.06;;;10.67;100.00
56912;BME280;42800;53.928;27.662;2023-04-25T07:45:42;98331.63;;;10.50;100.00
56912;BME280;42800;53.928;27.662;2023-04-25T07:48:08;98529.59;;;10.36;100.00
56912;BME280;42800;53.928;27.662;2023-04-25T07:50:34;98602.63;;;10.21;100.00
56912;BME280;42800;53.928;27.662;2023-04-25T07:53:00;98633.44;;;10.11;100.00
56912;BME280;42800;53.928;27.662;2023-04-25T07:55:26;98651.63;;;9.96;100.00
56912;BME280;42800;53.928;27.662;2023-04-25T07:57:52;98630.66;;;9.74;100.00
56912;BME280;42800;53.928;27.662;2023-04-25T08:00:19;98618.34;;;9.60;100.00
56912;BME280;42800;53.928;27.662;2023-04-25T08:02:45;98619.31;;;9.75;100.00
56912;BME280;42800;53.928;27.662;2023-04-25T08:05:11;98608.44;;;9.82;100.00
56912;BME280;42800;53.928;27.662;2023-04-25T08:07:39;98606.13;;;9.84;100.00
56912;BME280;42800;53.928;27.662;2023-04-25T08:10:06;98597.41;;;10.09;100.00
56912;BME280;42800;53.928;27.662;2023-04-25T08:12:33;98629.38;;;10.31;100.00
56912;BME280;42800;53.928;27.662;2023-04-25T08:14:59;98637.06;;;10.22;100.00
56912;BME280;42800;53.928;27.662;2023-04-25T08:17:25;98645.38;;;10.29;100.00
56912;BME280;42800;53.928;27.662;2023-04-25T08:19:51;98639.34;;;10.50;100.00
56912;BME280;42800;53.928;27.662;2023-04-25T08:22:17;98621.06;;;10.65;100.00
56912;BME280;42800;53.928;27.662;2023-04-25T08:24:43;98594.66;;;10.91;100.00
56912;BME280;42800;53.928;27.662;2023-04-25T08:27:09;98513.25;;;11.09;100.00
56912;BME280;42800;53.928;27.662;2023-04-25T08:29:35;98442.03;;;11.41;100.00
56912;BME280;42800;53.928;27.662;2023-04-25T08:32:01;98356.59;;;11.61;100.00
56912;BME280;42800;53.928;27.662;2023-04-25T08:34:27;98304.41;;;11.82;100.00
56912;BME280;42800;53.928;27.662;2023-04-25T08:36:53;98172.22;;;11.94;100.00
56912;BME280;42800;53.928;27.662;2023-04-25T08:39:19;98067.97;;;12.36;100.00
56912;BME280;42800;53.928;27.662;2023-04-25T08:41:46;98018.38;;;12.95;100.00
56912;BME280;42800;53.928;27.662;2023-04-25T08:44:12;97904.63;;;13.09;100.00
56912;BME280;42800;53.928;27.662;2023-04-25T08:46:39;97629.72;;;13.65;100.00
56912;BME280;42800;53.928;27.662;2023-04-25T08:49:05;97461.91;;;14.10;100.00
56912;BME280;42800;53.928;27.662;2023-04-25T08:51:32;97330.91;;;14.68;100.00
56912;BME280;42800;53.928;27.662;2023-04-25T08:54:04;97205.16;;;15.09;100.00
56912;BME280;42800;53.928;27.662;2023-04-25T08:56:34;97259.56;;;15.46;100.00
56912;BME280;42800;53.928;27.662;2023-04-25T08:59:01;97211.88;;;14.56;100.00
56912;BME280;42800;53.928;27.662;2023-04-25T09:01:27;97228.78;;;14.42;100.00
56912;BME280;42800;53.928;27.662;2023-04-25T09:03:54;97275.78;;;14.22;100.00
56912;BME280;42800;53.928;27.662;2023-04-25T09:06:20;97292.41;;;14.19;100.00
56912;BME280;42800;53.928;27.662;2023-04-25T09:08:46;97323.81;;;13.76;100.00
56912;BME280;42800;53.928;27.662;2023-04-25T09:11:12;97399.03;;;13.89;100.00
56912;BME280;42800;53.928;27.662;2023-04-25T09:13:39;97401.00;;;13.88;100.00
56912;BME280;42800;53.928;27.662;2023-04-25T09:16:05;97418.47;;;14.47;100.00
56912;BME280;42800;53.928;27.662;2023-04-25T09:18:33;97275.00;;;15.05;100.00
56912;BME280;42800;53.928;27.662;2023-04-25T09:21:06;97211.31;;;15.25;100.00
56912;BME280;42800;53.928;27.662;2023-04-25T09:23:39;97185.53;;;15.89;100.00
56912;BME280;42800;53.928;27.662;2023-04-25T09:26:06;97179.13;;;15.92;100.00
56912;BME280;42800;53.928;27.662;2023-04-25T09:28:33;97169.19;;;16.69;100.00
56912;BME280;42800;53.928;27.662;2023-04-25T09:31:00;97204.72;;;17.70;100.00
56912;BME280;42800;53.928;27.662;2023-04-25T09:33:27;97269.19;;;17.61;100.00
56912;BME280;42800;53.928;27.662;2023-04-25T09:36:01;97334.97;;;17.70;100.00
56912;BME280;42800;53.928;27.662;2023-04-25T09:38:30;97323.88;;;17.30;100.00
56912;BME280;42800;53.928;27.662;2023-04-25T09:40:56;97426.50;;;17.35;100.00
56912;BME280;42800;53.928;27.662;2023-04-25T09:43:24;97487.53;;;17.45;100.00
56912;BME280;42800;53.928;27.662;2023-04-25T09:45:53;97514.84;;;18.08;100.00
56912;BME280;42800;53.928;27.662;2023-04-25T09:48:24;97568.97;;;17.91;100.00
56912;BME280;42800;53.928;27.662;2023-04-25T09:51:04;97553.66;;;18.80;100.00
56912;BME280;42800;53.928;27.662;2023-04-25T09:53:31;97611.19;;;18.79;100.00
56912;BME280;42800;53.928;27.662;2023-04-25T09:55:59;97686.13;;;20.06;100.00
56912;BME280;42800;53.928;27.662;2023-04-25T09:58:29;97695.97;;;20.26;100.00
56912;BME280;42800;53.928;27.662;2023-04-25T10:00:59;97729.03;;;19.68;100.00
56912;BME280;42800;53.928;27.662;2023-04-25T10:03:26;97719.31;;;20.28;100.00
56912;BME280;42800;53.928;27.662;2023-04-25T10:05:54;97746.22;;;19.94;100.00
56912;BME280;42800;53.928;27.662;2023-04-25T10:08:22;97711.53;;;19.59;100.00
56912;BME280;42800;53.928;27.662;2023-04-25T10:10:50;97699.72;;;19.77;100.00
56912;BME280;42800;53.928;27.662;2023-04-25T10:13:16;97758.38;;;19.79;100.00
56912;BME280;42800;53.928;27.662;2023-04-25T10:15:42;97795.84;;;19.96;100.00
56912;BME280;42800;53.928;27.662;2023-04-25T10:18:09;97820.59;;;20.67;100.00
56912;BME280;42800;53.928;27.662;2023-04-25T10:20:35;97813.19;;;19.28;100.00
56912;BME280;42800;53.928;27.662;2023-04-25T10:23:08;97787.66;;;18.80;100.00
56912;BME280;42800;53.928;27.662;2023-04-25T10:25:36;97773.69;;;19.34;100.00
56912;BME280;42800;53.928;27.662;2023-04-25T10:28:04;97762.75;;;18.99;100.00
56912;BME280;42800;53.928;27.662;2023-04-25T10:30:30;97781.16;;;19.55;100.00
56912;BME280;42800;53.928;27.662;2023-04-25T10:32:56;97781.63;;;19.54;100.00
56912;BME280;42800;53.928;27.662;2023-04-25T10:35:25;97811.72;;;19.86;100.00
56912;BME280;42800;53.928;27.662;2023-04-25T10:38:02;97814.03;;;19.47;100.00
56912;BME280;42800;53.928;27.662;2023-04-25T10:40:29;97794.31;;;19.14;100.00
56912;BME280;42800;53.928;27.662;2023-04-25T10:42:55;97818.19;;;19.92;100.00
56912;BME280;42800;53.928;27.662;2023-04-25T10:45:22;97798.97;;;18.95;100.00
56912;BME280;42800;53.928;27.662;2023-04-25T10:47:48;97787.66;;;18.80;100.00
56912;BME280;42800;53.928;27.662;2023-04-25T10:50:14;97797.06;;;18.83;100.00
56912;BME280;42800;53.928;27.662;2023-04-25T10:52:40;97788.84;;;18.35;100.00
56912;BME280;42800;53.928;27.662;2023-04-25T10:55:07;97780.00;;;18.50;100.00
56912;BME280;42800;53.928;27.662;2023-04-25T10:57:37;97771.63;;;18.41;100.00
56912;BME280;42800;53.928;27.662;2023-04-25T11:00:13;97775.81;;;18.67;100.00
56912;BME280;42800;53.928;27.662;2023-04-25T11:02:42;97784.09;;;19.51;100.00
56912;BME280;42800;53.928;27.662;2023-04-25T11:05:10;97820.56;;;20.03;87.54
56912;BME280;42800;53.928;27.662;2023-04-25T11:07:49;97818.25;;;20.20;83.09
56912;BME280;42800;53.928;27.662;2023-04-25T11:10:16;97819.59;;;21.07;82.01
56912;BME280;42800;53.928;27.662;2023-04-25T11:12:42;97821.81;;;20.39;81.88
56912;BME280;42800;53.928;27.662;2023-04-25T11:15:08;97832.03;;;20.24;78.96
56912;BME280;42800;53.928;27.662;2023-04-25T11:17:34;97834.38;;;19.35;77.13
56912;BME280;42800;53.928;27.662;2023-04-25T11:20:02;97812.66;;;18.46;83.83
56912;BME280;42800;53.928;27.662;2023-04-25T11:22:31;97795.19;;;18.36;89.71
56912;BME280;42800;53.928;27.662;2023-04-25T11:24:57;97791.69;;;18.89;88.80
56912;BME280;42800;53.928;27.662;2023-04-25T11:27:23;97802.56;;;19.05;85.31
56912;BME280;42800;53.928;27.662;2023-04-25T11:29:50;97800.03;;;18.10;83.73
56912;BME280;42800;53.928;27.662;2023-04-25T11:32:17;97794.69;;;17.81;88.22
56912;BME280;42800;53.928;27.662;2023-04-25T11:34:44;97786.22;;;18.19;89.50
56912;BME280;42800;53.928;27.662;2023-04-25T11:37:11;97784.19;;;18.32;90.80
56912;BME280;42800;53.928;27.662;2023-04-25T11:39:37;97774.53;;;17.29;100.00
56912;BME280;42800;53.928;27.662;2023-04-25T11:42:04;97651.03;;;16.55;100.00
56912;BME280;42800;53.928;27.662;2023-04-25T11:44:31;97454.03;;;15.87;100.00
56912;BME280;42800;53.928;27.662;2023-04-25T11:46:57;97341.88;;;15.77;100.00
56912;BME280;42800;53.928;27.662;2023-04-25T11:49:23;97338.75;;;15.49;100.00
56912;BME280;42800;53.928;27.662;2023-04-25T11:51:50;97357.09;;;15.43;100.00
56912;BME280;42800;53.928;27.662;2023-04-25T11:54:16;97484.28;;;15.23;100.00
56912;BME280;42800;53.928;27.662;2023-04-25T11:56:43;97474.38;;;14.80;100.00
56912;BME280;42800;53.928;27.662;2023-04-25T11:59:09;97189.25;;;13.45;100.00
56912;BME280;42800;53.928;27.662;2023-04-25T12:01:36;97184.31;;;12.71;100.00
56912;BME280;42800;53.928;27.662;2023-04-25T12:04:13;97429.25;;;12.13;100.00
56912;BME280;42800;53.928;27.662;2023-04-25T12:06:41;97825.50;;;11.76;100.00
56912;BME280;42800;53.928;27.662;2023-04-25T12:09:08;98133.09;;;11.47;100.00
56912;BME280;42800;53.928;27.662;2023-04-25T12:11:41;98220.91;;;11.26;100.00
56912;BME280;42800;53.928;27.662;2023-04-25T12:14:08;98344.44;;;11.40;100.00
56912;BME280;42800;53.928;27.662;2023-04-25T12:16:41;98387.22;;;11.70;100.00
56912;BME280;42800;53.928;27.662;2023-04-25T12:19:07;98357.81;;;12.10;100.00
56912;BME280;42800;53.928;27.662;2023-04-25T12:21:33;98297.53;;;12.69;100.00
56912;BME280;42800;53.928;27.662;2023-04-25T12:24:09;98257.31;;;13.00;100.00
56912;BME280;42800;53.928;27.662;2023-04-25T12:26:50;97967.81;;;12.82;100.00
56912;BME280;42800;53.928;27.662;2023-04-25T12:29:20;97725.22;;;13.48;100.00
56912;BME280;42800;53.928;27.662;2023-04-25T12:31:47;98088.69;;;13.75;100.00
56912;BME280;42800;53.928;27.662;2023-04-25T12:34:13;98243.88;;;14.03;100.00
56912;BME280;42800;53.928;27.662;2023-04-25T12:36:39;98310.50;;;14.28;100.00
56912;BME280;42800;53.928;27.662;2023-04-25T12:39:05;98338.16;;;14.21;100.00
56912;BME280;42800;53.928;27.662;2023-04-25T12:41:31;98003.22;;;14.36;100.00
56912;BME280;42800;53.928;27.662;2023-04-25T12:43:57;98079.78;;;14.52;100.00